sensor_id;sensor_type;location;lat;lon;timestamp;P1;durP1;ratioP1;P2;durP2;ratioP2
53875;SDS011;39789;53.216;5.624;2023-03-23T00:01:27;8.18;;;5.15;;
53875;SDS011;39789;53.216;5.624;2023-03-23T00:03:55;10.57;;;5.97;;
53875;SDS011;39789;53.216;5.624;2023-03-23T00:06:22;10.32;;;7.18;;
53875;SDS011;39789;53.216;5.624;2023-03-23T00:08:50;12.57;;;8.52;;
53875;SDS011;39789;53.216;5.624;2023-03-23T00:11:22;14.35;;;9.13;;
53875;SDS011;39789;53.216;5.624;2023-03-23T00:13:51;17.30;;;12.68;;
53875;SDS011;39789;53.216;5.624;2023-03-23T00:16:18;16.75;;;13.25;;
53875;SDS011;39789;53.216;5.624;2023-03-23T00:18:48;20.10;;;15.02;;
53875;SDS011;39789;53.216;5.624;2023-03-23T00:21:17;22.67;;;16.60;;
53875;SDS011;39789;53.216;5.624;2023-03-23T00:23:53;23.00;;;16.45;;
53875;SDS011;39789;53.216;5.624;2023-03-23T00:26:18;22.10;;;17.45;;
53875;SDS011;39789;53.216;5.624;2023-03-23T00:28:44;24.35;;;17.38;;
53875;SDS011;39789;53.216;5.624;2023-03-23T00:31:12;22.25;;;17.75;;
53875;SDS011;39789;53.216;5.624;2023-03-23T00:33:39;25.45;;;19.45;;
53875;SDS011;39789;53.216;5.624;2023-03-23T00:36:08;24.05;;;19.45;;
53875;SDS011;39789;53.216;5.624;2023-03-23T00:38:38;22.35;;;17.50;;
53875;SDS011;39789;53.216;5.624;2023-03-23T00:41:06;25.58;;;18.35;;
53875;SDS011;39789;53.216;5.624;2023-03-23T00:43:32;25.60;;;18.88;;
53875;SDS011;39789;53.216;5.624;2023-03-23T00:46:01;27.92;;;19.70;;
53875;SDS011;39789;53.216;5.624;2023-03-23T00:48:33;24.15;;;18.85;;
53875;SDS011;39789;53.216;5.624;2023-03-23T00:51:00;27.30;;;20.02;;
53875;SDS011;39789;53.216;5.624;2023-03-23T00:53:31;27.02;;;19.05;;
53875;SDS011;39789;53.216;5.624;2023-03-23T00:55:57;25.83;;;19.38;;
53875;SDS011;39789;53.216;5.624;2023-03-23T00:58:23;26.10;;;18.92;;
53875;SDS011;39789;53.216;5.624;2023-03-23T01:00:48;29.63;;;20.02;;
53875;SDS011;39789;53.216;5.624;2023-03-23T01:03:14;30.35;;;20.73;;
53875;SDS011;39789;53.216;5.624;2023-03-23T01:05:43;29.90;;;21.15;;
53875;SDS011;39789;53.216;5.624;2023-03-23T01:08:12;28.30;;;20.50;;
53875;SDS011;39789;53.216;5.624;2023-03-23T01:10:38;28.67;;;20.73;;
53875;SDS011;39789;53.216;5.624;2023-03-23T01:13:05;28.23;;;22.05;;
53875;SDS011;39789;53.216;5.624;2023-03-23T01:15:31;26.48;;;21.13;;
53875;SDS011;39789;53.216;5.624;2023-03-23T01:17:58;26.17;;;20.52;;
53875;SDS011;39789;53.216;5.624;2023-03-23T01:20:24;24.60;;;18.80;;
53875;SDS011;39789;53.216;5.624;2023-03-23T01:22:53;24.35;;;16.77;;
53875;SDS011;39789;53.216;5.624;2023-03-23T01:25:25;25.10;;;17.42;;
53875;SDS011;39789;53.216;5.624;2023-03-23T01:27:55;22.20;;;14.68;;
53875;SDS011;39789;53.216;5.624;2023-03-23T01:30:21;19.92;;;15.38;;
53875;SDS011;39789;53.216;5.624;2023-03-23T01:32:47;21.67;;;16.27;;
53875;SDS011;39789;53.216;5.624;2023-03-23T01:35:13;23.90;;;16.88;;
53875;SDS011;39789;53.216;5.624;2023-03-23T01:37:39;24.23;;;16.85;;
53875;SDS011;39789;53.216;5.624;2023-03-23T01:40:05;22.80;;;15.88;;
53875;SDS011;39789;53.216;5.624;2023-03-23T01:42:33;28.27;;;16.50;;
53875;SDS011;39789;53.216;5.624;2023-03-23T01:47:44;25.05;;;15.07;;
53875;SDS011;39789;53.216;5.624;2023-03-23T01:50:31;23.98;;;15.73;;
53875;SDS011;39789;53.216;5.624;2023-03-23T01:53:01;22.55;;;14.77;;
53875;SDS011;39789;53.216;5.624;2023-03-23T01:55:33;20.63;;;13.98;;
53875;SDS011;39789;53.216;5.624;2023-03-23T01:58:01;18.02;;;12.88;;
53875;SDS011;39789;53.216;5.624;2023-03-23T02:00:27;18.92;;;13.05;;
53875;SDS011;39789;53.216;5.624;2023-03-23T02:02:55;15.32;;;11.98;;
53875;SDS011;39789;53.216;5.624;2023-03-23T02:05:26;20.20;;;12.07;;
53875;SDS011;39789;53.216;5.624;2023-03-23T02:07:59;16.67;;;12.23;;
53875;SDS011;39789;53.216;5.624;2023-03-23T02:10:28;16.40;;;11.18;;
53875;SDS011;39789;53.216;5.624;2023-03-23T02:12:56;14.63;;;9.57;;
53875;SDS011;39789;53.216;5.624;2023-03-23T02:15:22;16.25;;;9.98;;
53875;SDS011;39789;53.216;5.624;2023-03-23T02:17:53;14.43;;;9.32;;
53875;SDS011;39789;53.216;5.624;2023-03-23T02:25:53;10.00;;;7.45;;
53875;SDS011;39789;53.216;5.624;2023-03-23T02:39:13;9.48;;;6.10;;
53875;SDS011;39789;53.216;5.624;2023-03-23T02:41:45;10.55;;;5.75;;
53875;SDS011;39789;53.216;5.624;2023-03-23T02:44:15;11.50;;;5.65;;
53875;SDS011;39789;53.216;5.624;2023-03-23T02:46:42;12.70;;;5.40;;
53875;SDS011;39789;53.216;5.624;2023-03-23T02:49:09;12.95;;;5.07;;
53875;SDS011;39789;53.216;5.624;2023-03-23T02:51:38;15.13;;;6.32;;
53875;SDS011;39789;53.216;5.624;2023-03-23T02:54:05;12.55;;;4.80;;
53875;SDS011;39789;53.216;5.624;2023-03-23T02:56:32;10.25;;;4.82;;
53875;SDS011;39789;53.216;5.624;2023-03-23T02:58:59;12.25;;;4.72;;
53875;SDS011;39789;53.216;5.624;2023-03-23T03:03:51;11.52;;;5.28;;
53875;SDS011;39789;53.216;5.624;2023-03-23T03:06:24;9.50;;;5.10;;
53875;SDS011;39789;53.216;5.624;2023-03-23T03:09:09;10.00;;;4.65;;
53875;SDS011;39789;53.216;5.624;2023-03-23T03:11:46;13.63;;;4.68;;
53875;SDS011;39789;53.216;5.624;2023-03-23T03:14:19;8.93;;;4.75;;
53875;SDS011;39789;53.216;5.624;2023-03-23T03:17:00;10.40;;;4.80;;
53875;SDS011;39789;53.216;5.624;2023-03-23T03:19:44;11.95;;;5.53;;
53875;SDS011;39789;53.216;5.624;2023-03-23T03:22:13;9.57;;;4.40;;
53875;SDS011;39789;53.216;5.624;2023-03-23T03:24:39;13.40;;;4.88;;
53875;SDS011;39789;53.216;5.624;2023-03-23T03:27:10;9.05;;;4.18;;
53875;SDS011;39789;53.216;5.624;2023-03-23T03:29:40;10.15;;;3.67;;
53875;SDS011;39789;53.216;5.624;2023-03-23T03:32:08;12.40;;;3.92;;
53875;SDS011;39789;53.216;5.624;2023-03-23T03:34:42;8.73;;;3.70;;
53875;SDS011;39789;53.216;5.624;2023-03-23T03:37:07;5.30;;;2.35;;
53875;SDS011;39789;53.216;5.624;2023-03-23T03:39:36;9.65;;;3.30;;
53875;SDS011;39789;53.216;5.624;2023-03-23T03:42:02;10.95;;;3.42;;
53875;SDS011;39789;53.216;5.624;2023-03-23T03:44:31;13.00;;;4.28;;
53875;SDS011;39789;53.216;5.624;2023-03-23T03:46:58;11.73;;;3.83;;
53875;SDS011;39789;53.216;5.624;2023-03-23T03:49:26;11.35;;;3.15;;
53875;SDS011;39789;53.216;5.624;2023-03-23T03:51:52;6.72;;;2.65;;
53875;SDS011;39789;53.216;5.624;2023-03-23T03:54:17;9.10;;;2.67;;
53875;SDS011;39789;53.216;5.624;2023-03-23T03:56:43;8.15;;;2.70;;
53875;SDS011;39789;53.216;5.624;2023-03-23T03:59:11;9.90;;;3.22;;
53875;SDS011;39789;53.216;5.624;2023-03-23T04:01:37;8.05;;;3.28;;
53875;SDS011;39789;53.216;5.624;2023-03-23T04:04:03;5.45;;;2.85;;
53875;SDS011;39789;53.216;5.624;2023-03-23T04:06:31;12.55;;;2.97;;
53875;SDS011;39789;53.216;5.624;2023-03-23T04:08:58;12.98;;;3.25;;
53875;SDS011;39789;53.216;5.624;2023-03-23T04:11:24;11.32;;;2.90;;
53875;SDS011;39789;53.216;5.624;2023-03-23T04:13:50;13.23;;;3.70;;
53875;SDS011;39789;53.216;5.624;2023-03-23T04:16:16;10.00;;;3.35;;
53875;SDS011;39789;53.216;5.624;2023-03-23T04:18:42;10.73;;;3.40;;
53875;SDS011;39789;53.216;5.624;2023-03-23T04:21:08;10.38;;;3.30;;
53875;SDS011;39789;53.216;5.624;2023-03-23T04:23:34;8.73;;;3.25;;
53875;SDS011;39789;53.216;5.624;2023-03-23T04:26:00;11.45;;;2.70;;
53875;SDS011;39789;53.216;5.624;2023-03-23T04:28:28;13.60;;;3.85;;
53875;SDS011;39789;53.216;5.624;2023-03-23T04:30:54;13.88;;;4.82;;
53875;SDS011;39789;53.216;5.624;2023-03-23T04:33:24;14.93;;;3.92;;
53875;SDS011;39789;53.216;5.624;2023-03-23T04:35:55;14.07;;;4.18;;
53875;SDS011;39789;53.216;5.624;2023-03-23T04:38:26;12.52;;;4.70;;
53875;SDS011;39789;53.216;5.624;2023-03-23T04:40:52;17.35;;;3.95;;
53875;SDS011;39789;53.216;5.624;2023-03-23T04:43:19;15.70;;;5.10;;
53875;SDS011;39789;53.216;5.624;2023-03-23T04:45:47;18.45;;;4.40;;
53875;SDS011;39789;53.216;5.624;2023-03-23T04:50:51;20.13;;;4.50;;
53875;SDS011;39789;53.216;5.624;2023-03-23T04:53:17;20.08;;;4.50;;
53875;SDS011;39789;53.216;5.624;2023-03-23T04:55:44;19.15;;;4.72;;
53875;SDS011;39789;53.216;5.624;2023-03-23T04:58:13;19.33;;;4.93;;
53875;SDS011;39789;53.216;5.624;2023-03-23T05:00:39;18.42;;;6.40;;
53875;SDS011;39789;53.216;5.624;2023-03-23T05:03:05;20.27;;;5.15;;
53875;SDS011;39789;53.216;5.624;2023-03-23T05:05:33;17.00;;;4.25;;
53875;SDS011;39789;53.216;5.624;2023-03-23T05:07:59;18.50;;;5.13;;
53875;SDS011;39789;53.216;5.624;2023-03-23T05:10:25;16.13;;;4.43;;
53875;SDS011;39789;53.216;5.624;2023-03-23T05:12:52;22.42;;;5.20;;
53875;SDS011;39789;53.216;5.624;2023-03-23T05:15:18;18.42;;;6.38;;
53875;SDS011;39789;53.216;5.624;2023-03-23T05:17:44;20.48;;;5.88;;
53875;SDS011;39789;53.216;5.624;2023-03-23T05:20:10;30.17;;;5.88;;
53875;SDS011;39789;53.216;5.624;2023-03-23T05:22:39;21.00;;;5.65;;
53875;SDS011;39789;53.216;5.624;2023-03-23T05:25:05;31.13;;;6.88;;
53875;SDS011;39789;53.216;5.624;2023-03-23T05:27:37;23.35;;;6.15;;
53875;SDS011;39789;53.216;5.624;2023-03-23T05:30:04;23.10;;;5.63;;
53875;SDS011;39789;53.216;5.624;2023-03-23T05:32:31;24.52;;;6.60;;
53875;SDS011;39789;53.216;5.624;2023-03-23T05:34:57;21.23;;;5.13;;
53875;SDS011;39789;53.216;5.624;2023-03-23T05:37:24;21.40;;;5.35;;
53875;SDS011;39789;53.216;5.624;2023-03-23T05:39:52;22.83;;;5.32;;
53875;SDS011;39789;53.216;5.624;2023-03-23T05:42:24;21.90;;;5.70;;
53875;SDS011;39789;53.216;5.624;2023-03-23T05:44:50;21.20;;;4.75;;
53875;SDS011;39789;53.216;5.624;2023-03-23T05:47:16;23.23;;;6.03;;
53875;SDS011;39789;53.216;5.624;2023-03-23T05:49:42;20.67;;;5.28;;
53875;SDS011;39789;53.216;5.624;2023-03-23T05:52:07;13.98;;;4.38;;
53875;SDS011;39789;53.216;5.624;2023-03-23T05:54:33;11.57;;;3.75;;
53875;SDS011;39789;53.216;5.624;2023-03-23T05:56:59;16.25;;;3.60;;
53875;SDS011;39789;53.216;5.624;2023-03-23T05:59:25;7.38;;;2.53;;
53875;SDS011;39789;53.216;5.624;2023-03-23T06:01:53;7.53;;;2.80;;
53875;SDS011;39789;53.216;5.624;2023-03-23T06:04:20;6.63;;;2.30;;
53875;SDS011;39789;53.216;5.624;2023-03-23T06:06:51;9.00;;;2.30;;
53875;SDS011;39789;53.216;5.624;2023-03-23T06:09:17;10.40;;;2.00;;
53875;SDS011;39789;53.216;5.624;2023-03-23T06:11:46;10.70;;;2.22;;
53875;SDS011;39789;53.216;5.624;2023-03-23T06:14:15;8.45;;;2.90;;
53875;SDS011;39789;53.216;5.624;2023-03-23T06:16:42;10.75;;;2.20;;
53875;SDS011;39789;53.216;5.624;2023-03-23T06:19:07;9.50;;;2.20;;
53875;SDS011;39789;53.216;5.624;2023-03-23T06:21:33;12.63;;;3.53;;
53875;SDS011;39789;53.216;5.624;2023-03-23T06:23:59;12.05;;;3.58;;
53875;SDS011;39789;53.216;5.624;2023-03-23T06:26:27;13.50;;;3.20;;
53875;SDS011;39789;53.216;5.624;2023-03-23T06:28:56;13.65;;;3.72;;
53875;SDS011;39789;53.216;5.624;2023-03-23T06:31:22;16.13;;;4.38;;
53875;SDS011;39789;53.216;5.624;2023-03-23T06:33:49;11.02;;;3.03;;
53875;SDS011;39789;53.216;5.624;2023-03-23T06:36:16;16.33;;;4.15;;
53875;SDS011;39789;53.216;5.624;2023-03-23T06:38:42;21.40;;;5.30;;
53875;SDS011;39789;53.216;5.624;2023-03-23T06:41:10;21.65;;;5.60;;
53875;SDS011;39789;53.216;5.624;2023-03-23T06:43:36;16.77;;;5.43;;
53875;SDS011;39789;53.216;5.624;2023-03-23T06:46:05;23.23;;;5.05;;
53875;SDS011;39789;53.216;5.624;2023-03-23T06:48:31;30.70;;;6.38;;
53875;SDS011;39789;53.216;5.624;2023-03-23T06:50:57;26.23;;;5.68;;
53875;SDS011;39789;53.216;5.624;2023-03-23T06:53:23;27.50;;;6.70;;
53875;SDS011;39789;53.216;5.624;2023-03-23T06:55:49;22.98;;;6.22;;
53875;SDS011;39789;53.216;5.624;2023-03-23T06:58:16;30.42;;;5.65;;
53875;SDS011;39789;53.216;5.624;2023-03-23T07:00:42;32.50;;;6.75;;
53875;SDS011;39789;53.216;5.624;2023-03-23T07:03:08;29.73;;;7.38;;
53875;SDS011;39789;53.216;5.624;2023-03-23T07:05:34;26.63;;;6.15;;
53875;SDS011;39789;53.216;5.624;2023-03-23T07:08:03;30.58;;;7.43;;
53875;SDS011;39789;53.216;5.624;2023-03-23T07:10:29;26.45;;;6.03;;
53875;SDS011;39789;53.216;5.624;2023-03-23T07:12:55;26.35;;;7.32;;
53875;SDS011;39789;53.216;5.624;2023-03-23T07:15:21;31.23;;;7.07;;
53875;SDS011;39789;53.216;5.624;2023-03-23T07:17:47;34.13;;;8.27;;
53875;SDS011;39789;53.216;5.624;2023-03-23T07:20:16;29.38;;;7.05;;
53875;SDS011;39789;53.216;5.624;2023-03-23T07:22:41;26.02;;;7.18;;
53875;SDS011;39789;53.216;5.624;2023-03-23T07:25:07;33.60;;;8.10;;
53875;SDS011;39789;53.216;5.624;2023-03-23T07:27:34;34.28;;;7.93;;
53875;SDS011;39789;53.216;5.624;2023-03-23T07:29:59;30.85;;;7.22;;
53875;SDS011;39789;53.216;5.624;2023-03-23T07:32:25;28.48;;;7.15;;
53875;SDS011;39789;53.216;5.624;2023-03-23T07:34:51;29.33;;;7.20;;
53875;SDS011;39789;53.216;5.624;2023-03-23T07:37:17;30.92;;;6.68;;
53875;SDS011;39789;53.216;5.624;2023-03-23T07:39:42;29.92;;;7.40;;
53875;SDS011;39789;53.216;5.624;2023-03-23T07:42:08;25.33;;;6.65;;
53875;SDS011;39789;53.216;5.624;2023-03-23T07:44:34;25.90;;;6.18;;
53875;SDS011;39789;53.216;5.624;2023-03-23T07:47:00;28.52;;;7.45;;
53875;SDS011;39789;53.216;5.624;2023-03-23T07:49:26;29.27;;;6.20;;
53875;SDS011;39789;53.216;5.624;2023-03-23T07:51:52;30.67;;;6.75;;
53875;SDS011;39789;53.216;5.624;2023-03-23T07:54:17;29.27;;;6.57;;
53875;SDS011;39789;53.216;5.624;2023-03-23T07:56:43;27.15;;;6.25;;
53875;SDS011;39789;53.216;5.624;2023-03-23T07:59:10;25.60;;;5.50;;
53875;SDS011;39789;53.216;5.624;2023-03-23T08:01:37;26.67;;;6.32;;
53875;SDS011;39789;53.216;5.624;2023-03-23T08:04:04;22.48;;;7.68;;
53875;SDS011;39789;53.216;5.624;2023-03-23T08:06:31;19.23;;;5.40;;
53875;SDS011;39789;53.216;5.624;2023-03-23T08:08:58;21.95;;;6.50;;
53875;SDS011;39789;53.216;5.624;2023-03-23T08:11:32;29.67;;;6.70;;
53875;SDS011;39789;53.216;5.624;2023-03-23T08:13:59;27.50;;;6.93;;
53875;SDS011;39789;53.216;5.624;2023-03-23T08:16:25;26.27;;;6.72;;
53875;SDS011;39789;53.216;5.624;2023-03-23T08:18:50;22.77;;;6.28;;
53875;SDS011;39789;53.216;5.624;2023-03-23T08:21:16;21.00;;;6.10;;
53875;SDS011;39789;53.216;5.624;2023-03-23T08:23:42;25.73;;;6.13;;
53875;SDS011;39789;53.216;5.624;2023-03-23T08:26:08;26.85;;;6.38;;
53875;SDS011;39789;53.216;5.624;2023-03-23T08:28:35;25.55;;;7.38;;
53875;SDS011;39789;53.216;5.624;2023-03-23T08:31:09;26.63;;;5.97;;
53875;SDS011;39789;53.216;5.624;2023-03-23T08:33:38;27.38;;;6.97;;
53875;SDS011;39789;53.216;5.624;2023-03-23T08:36:04;33.30;;;6.85;;
53875;SDS011;39789;53.216;5.624;2023-03-23T08:38:30;27.35;;;7.60;;
53875;SDS011;39789;53.216;5.624;2023-03-23T08:41:00;20.90;;;5.75;;
53875;SDS011;39789;53.216;5.624;2023-03-23T08:43:29;25.60;;;6.00;;
53875;SDS011;39789;53.216;5.624;2023-03-23T08:45:58;24.65;;;7.07;;
53875;SDS011;39789;53.216;5.624;2023-03-23T08:48:24;33.08;;;7.03;;
53875;SDS011;39789;53.216;5.624;2023-03-23T08:50:50;24.88;;;6.60;;
53875;SDS011;39789;53.216;5.624;2023-03-23T08:53:17;30.50;;;6.57;;
53875;SDS011;39789;53.216;5.624;2023-03-23T08:55:47;25.65;;;5.75;;
53875;SDS011;39789;53.216;5.624;2023-03-23T08:58:14;25.63;;;8.50;;
53875;SDS011;39789;53.216;5.624;2023-03-23T09:00:40;28.20;;;6.90;;
53875;SDS011;39789;53.216;5.624;2023-03-23T09:03:06;30.35;;;8.00;;
53875;SDS011;39789;53.216;5.624;2023-03-23T09:05:33;30.90;;;6.85;;
53875;SDS011;39789;53.216;5.624;2023-03-23T09:07:58;27.13;;;7.72;;
53875;SDS011;39789;53.216;5.624;2023-03-23T09:10:25;32.42;;;6.15;;
53875;SDS011;39789;53.216;5.624;2023-03-23T09:12:53;33.60;;;7.30;;
53875;SDS011;39789;53.216;5.624;2023-03-23T09:15:19;29.13;;;7.50;;
53875;SDS011;39789;53.216;5.624;2023-03-23T09:17:46;27.60;;;7.18;;
53875;SDS011;39789;53.216;5.624;2023-03-23T09:20:16;26.23;;;7.22;;
53875;SDS011;39789;53.216;5.624;2023-03-23T09:22:48;29.35;;;7.50;;
53875;SDS011;39789;53.216;5.624;2023-03-23T09:25:17;24.40;;;6.53;;
53875;SDS011;39789;53.216;5.624;2023-03-23T09:27:48;23.20;;;7.05;;
53875;SDS011;39789;53.216;5.624;2023-03-23T09:30:18;27.02;;;6.70;;
53875;SDS011;39789;53.216;5.624;2023-03-23T09:32:45;32.38;;;6.78;;
53875;SDS011;39789;53.216;5.624;2023-03-23T09:35:12;29.05;;;6.22;;
53875;SDS011;39789;53.216;5.624;2023-03-23T09:37:39;22.33;;;6.68;;
53875;SDS011;39789;53.216;5.624;2023-03-23T09:40:06;19.73;;;6.00;;
53875;SDS011;39789;53.216;5.624;2023-03-23T09:42:42;29.17;;;6.68;;
53875;SDS011;39789;53.216;5.624;2023-03-23T09:45:21;28.52;;;6.80;;
53875;SDS011;39789;53.216;5.624;2023-03-23T09:48:40;30.92;;;6.75;;
53875;SDS011;39789;53.216;5.624;2023-03-23T09:50:53;32.55;;;8.40;;
53875;SDS011;39789;53.216;5.624;2023-03-23T09:53:36;32.17;;;8.30;;
53875;SDS011;39789;53.216;5.624;2023-03-23T09:56:08;27.75;;;6.75;;
53875;SDS011;39789;53.216;5.624;2023-03-23T09:58:41;27.92;;;6.72;;
53875;SDS011;39789;53.216;5.624;2023-03-23T10:04:15;24.52;;;6.65;;
53875;SDS011;39789;53.216;5.624;2023-03-23T10:06:54;30.23;;;7.72;;
53875;SDS011;39789;53.216;5.624;2023-03-23T10:09:24;21.80;;;6.45;;
53875;SDS011;39789;53.216;5.624;2023-03-23T10:11:59;23.77;;;6.10;;
53875;SDS011;39789;53.216;5.624;2023-03-23T10:14:39;24.33;;;6.68;;
53875;SDS011;39789;53.216;5.624;2023-03-23T10:17:33;23.23;;;5.82;;
53875;SDS011;39789;53.216;5.624;2023-03-23T10:20:15;20.17;;;5.53;;
53875;SDS011;39789;53.216;5.624;2023-03-23T10:22:59;31.17;;;6.80;;
53875;SDS011;39789;53.216;5.624;2023-03-23T10:25:33;19.48;;;6.07;;
53875;SDS011;39789;53.216;5.624;2023-03-23T10:28:06;27.73;;;5.97;;
53875;SDS011;39789;53.216;5.624;2023-03-23T10:30:36;25.52;;;5.68;;
53875;SDS011;39789;53.216;5.624;2023-03-23T10:35:50;32.22;;;6.50;;
53875;SDS011;39789;53.216;5.624;2023-03-23T10:38:34;17.85;;;5.50;;
53875;SDS011;39789;53.216;5.624;2023-03-23T10:41:12;33.70;;;6.03;;
53875;SDS011;39789;53.216;5.624;2023-03-23T10:43:43;28.30;;;6.72;;
53875;SDS011;39789;53.216;5.624;2023-03-23T10:46:20;21.83;;;5.38;;
53875;SDS011;39789;53.216;5.624;2023-03-23T10:48:50;27.30;;;5.70;;
53875;SDS011;39789;53.216;5.624;2023-03-23T10:51:19;25.75;;;5.88;;
53875;SDS011;39789;53.216;5.624;2023-03-23T10:53:50;20.38;;;6.05;;
53875;SDS011;39789;53.216;5.624;2023-03-23T10:58:52;17.00;;;4.43;;
53875;SDS011;39789;53.216;5.624;2023-03-23T11:01:19;21.10;;;5.07;;
53875;SDS011;39789;53.216;5.624;2023-03-23T11:03:52;24.70;;;5.50;;
53875;SDS011;39789;53.216;5.624;2023-03-23T11:06:19;19.92;;;5.40;;
53875;SDS011;39789;53.216;5.624;2023-03-23T11:11:29;17.80;;;5.25;;
53875;SDS011;39789;53.216;5.624;2023-03-23T11:14:41;20.38;;;5.32;;
53875;SDS011;39789;53.216;5.624;2023-03-23T11:16:44;16.38;;;4.95;;
53875;SDS011;39789;53.216;5.624;2023-03-23T11:19:20;24.50;;;5.60;;
53875;SDS011;39789;53.216;5.624;2023-03-23T11:21:51;21.02;;;5.45;;
53875;SDS011;39789;53.216;5.624;2023-03-23T11:24:21;19.75;;;5.53;;
53875;SDS011;39789;53.216;5.624;2023-03-23T11:26:48;16.40;;;4.25;;
53875;SDS011;39789;53.216;5.624;2023-03-23T11:31:50;28.00;;;4.50;;
53875;SDS011;39789;53.216;5.624;2023-03-23T11:34:40;15.35;;;3.88;;
53875;SDS011;39789;53.216;5.624;2023-03-23T11:37:08;17.05;;;5.00;;
53875;SDS011;39789;53.216;5.624;2023-03-23T11:42:34;20.45;;;5.28;;
53875;SDS011;39789;53.216;5.624;2023-03-23T11:45:22;20.50;;;4.13;;
53875;SDS011;39789;53.216;5.624;2023-03-23T11:50:50;16.15;;;5.07;;
53875;SDS011;39789;53.216;5.624;2023-03-23T11:53:33;24.77;;;5.70;;
53875;SDS011;39789;53.216;5.624;2023-03-23T11:56:12;14.88;;;4.03;;
53875;SDS011;39789;53.216;5.624;2023-03-23T11:58:45;17.42;;;4.60;;
53875;SDS011;39789;53.216;5.624;2023-03-23T12:01:17;17.52;;;4.50;;
53875;SDS011;39789;53.216;5.624;2023-03-23T12:03:56;20.00;;;4.15;;
53875;SDS011;39789;53.216;5.624;2023-03-23T12:06:34;14.55;;;4.53;;
53875;SDS011;39789;53.216;5.624;2023-03-23T12:23:17;28.17;;;4.93;;
53875;SDS011;39789;53.216;5.624;2023-03-23T12:28:44;26.58;;;5.80;;
53875;SDS011;39789;53.216;5.624;2023-03-23T12:33:57;17.20;;;5.15;;
53875;SDS011;39789;53.216;5.624;2023-03-23T12:42:23;22.33;;;4.68;;
53875;SDS011;39789;53.216;5.624;2023-03-23T12:45:07;28.13;;;5.15;;
53875;SDS011;39789;53.216;5.624;2023-03-23T12:48:02;19.58;;;4.45;;
53875;SDS011;39789;53.216;5.624;2023-03-23T12:50:45;21.35;;;5.40;;
53875;SDS011;39789;53.216;5.624;2023-03-23T12:53:31;20.10;;;4.95;;
53875;SDS011;39789;53.216;5.624;2023-03-23T12:56:17;22.80;;;5.20;;
53875;SDS011;39789;53.216;5.624;2023-03-23T13:02:08;13.27;;;4.47;;
53875;SDS011;39789;53.216;5.624;2023-03-23T13:04:44;14.32;;;4.20;;
53875;SDS011;39789;53.216;5.624;2023-03-23T13:07:19;15.60;;;5.30;;
53875;SDS011;39789;53.216;5.624;2023-03-23T13:10:00;14.57;;;4.53;;
53875;SDS011;39789;53.216;5.624;2023-03-23T13:12:30;24.17;;;5.72;;
53875;SDS011;39789;53.216;5.624;2023-03-23T13:15:02;23.45;;;6.05;;
53875;SDS011;39789;53.216;5.624;2023-03-23T13:18:05;22.23;;;5.18;;
53875;SDS011;39789;53.216;5.624;2023-03-23T13:20:39;18.83;;;5.35;;
53875;SDS011;39789;53.216;5.624;2023-03-23T13:26:00;18.60;;;5.05;;
53875;SDS011;39789;53.216;5.624;2023-03-23T13:28:56;20.45;;;5.88;;
53875;SDS011;39789;53.216;5.624;2023-03-23T13:31:24;19.13;;;4.97;;
53875;SDS011;39789;53.216;5.624;2023-03-23T13:33:58;26.23;;;5.95;;
53875;SDS011;39789;53.216;5.624;2023-03-23T13:39:01;15.65;;;5.78;;
53875;SDS011;39789;53.216;5.624;2023-03-23T13:41:29;16.45;;;4.30;;
53875;SDS011;39789;53.216;5.624;2023-03-23T13:46:42;21.10;;;4.55;;
53875;SDS011;39789;53.216;5.624;2023-03-23T13:49:20;21.90;;;4.22;;
53875;SDS011;39789;53.216;5.624;2023-03-23T13:51:52;11.55;;;4.63;;
53875;SDS011;39789;53.216;5.624;2023-03-23T13:54:29;13.40;;;4.93;;
53875;SDS011;39789;53.216;5.624;2023-03-23T13:56:58;16.70;;;4.25;;
53875;SDS011;39789;53.216;5.624;2023-03-23T14:01:56;16.17;;;3.90;;
53875;SDS011;39789;53.216;5.624;2023-03-23T14:04:42;19.55;;;4.18;;
53875;SDS011;39789;53.216;5.624;2023-03-23T14:07:11;12.60;;;4.25;;
53875;SDS011;39789;53.216;5.624;2023-03-23T14:09:41;16.42;;;4.68;;
53875;SDS011;39789;53.216;5.624;2023-03-23T14:12:17;18.17;;;4.20;;
53875;SDS011;39789;53.216;5.624;2023-03-23T14:14:55;12.70;;;4.13;;
53875;SDS011;39789;53.216;5.624;2023-03-23T14:17:26;13.68;;;3.63;;
53875;SDS011;39789;53.216;5.624;2023-03-23T14:19:56;14.27;;;3.88;;
53875;SDS011;39789;53.216;5.624;2023-03-23T14:22:37;15.75;;;3.63;;
53875;SDS011;39789;53.216;5.624;2023-03-23T14:25:11;14.27;;;4.07;;
53875;SDS011;39789;53.216;5.624;2023-03-23T14:27:37;16.23;;;3.80;;
53875;SDS011;39789;53.216;5.624;2023-03-23T14:30:05;17.75;;;4.70;;
53875;SDS011;39789;53.216;5.624;2023-03-23T14:32:32;14.65;;;3.45;;
53875;SDS011;39789;53.216;5.624;2023-03-23T14:35:04;14.75;;;3.50;;
53875;SDS011;39789;53.216;5.624;2023-03-23T14:37:45;13.63;;;3.70;;
53875;SDS011;39789;53.216;5.624;2023-03-23T14:40:13;11.38;;;3.22;;
53875;SDS011;39789;53.216;5.624;2023-03-23T14:42:41;11.55;;;3.78;;
53875;SDS011;39789;53.216;5.624;2023-03-23T14:45:12;13.80;;;3.22;;
53875;SDS011;39789;53.216;5.624;2023-03-23T14:47:51;11.75;;;3.25;;
53875;SDS011;39789;53.216;5.624;2023-03-23T14:50:23;14.27;;;3.65;;
53875;SDS011;39789;53.216;5.624;2023-03-23T14:52:53;20.55;;;3.50;;
53875;SDS011;39789;53.216;5.624;2023-03-23T14:55:22;16.60;;;4.38;;
53875;SDS011;39789;53.216;5.624;2023-03-23T14:57:48;13.70;;;3.90;;
53875;SDS011;39789;53.216;5.624;2023-03-23T15:00:16;12.55;;;3.33;;
53875;SDS011;39789;53.216;5.624;2023-03-23T15:02:56;11.63;;;3.05;;
53875;SDS011;39789;53.216;5.624;2023-03-23T15:08:01;12.00;;;3.78;;
53875;SDS011;39789;53.216;5.624;2023-03-23T15:10:30;13.10;;;3.22;;
53875;SDS011;39789;53.216;5.624;2023-03-23T15:12:56;11.27;;;3.03;;
53875;SDS011;39789;53.216;5.624;2023-03-23T15:15:27;11.50;;;3.65;;
53875;SDS011;39789;53.216;5.624;2023-03-23T15:17:55;11.88;;;3.03;;
53875;SDS011;39789;53.216;5.624;2023-03-23T15:22:50;15.07;;;4.22;;
53875;SDS011;39789;53.216;5.624;2023-03-23T15:25:18;14.60;;;4.18;;
53875;SDS011;39789;53.216;5.624;2023-03-23T15:27:51;15.05;;;3.97;;
53875;SDS011;39789;53.216;5.624;2023-03-23T15:32:59;16.90;;;4.45;;
53875;SDS011;39789;53.216;5.624;2023-03-23T15:35:32;20.73;;;4.55;;
53875;SDS011;39789;53.216;5.624;2023-03-23T15:38:01;19.92;;;4.60;;
53875;SDS011;39789;53.216;5.624;2023-03-23T15:40:32;17.02;;;4.63;;
53875;SDS011;39789;53.216;5.624;2023-03-23T15:43:07;15.63;;;5.65;;
53875;SDS011;39789;53.216;5.624;2023-03-23T15:51:29;23.33;;;5.30;;
53875;SDS011;39789;53.216;5.624;2023-03-23T15:53:56;18.45;;;5.22;;
53875;SDS011;39789;53.216;5.624;2023-03-23T15:56:22;26.80;;;6.05;;
53875;SDS011;39789;53.216;5.624;2023-03-23T15:58:49;16.45;;;4.68;;
53875;SDS011;39789;53.216;5.624;2023-03-23T16:01:19;14.95;;;4.35;;
53875;SDS011;39789;53.216;5.624;2023-03-23T16:03:51;19.15;;;4.65;;
53875;SDS011;39789;53.216;5.624;2023-03-23T16:06:20;18.75;;;5.50;;
53875;SDS011;39789;53.216;5.624;2023-03-23T16:08:47;20.42;;;5.05;;
53875;SDS011;39789;53.216;5.624;2023-03-23T16:11:13;18.20;;;4.88;;
53875;SDS011;39789;53.216;5.624;2023-03-23T16:13:40;24.55;;;5.90;;
53875;SDS011;39789;53.216;5.624;2023-03-23T16:16:10;30.60;;;5.47;;
53875;SDS011;39789;53.216;5.624;2023-03-23T16:18:41;20.70;;;5.13;;
53875;SDS011;39789;53.216;5.624;2023-03-23T16:21:07;22.30;;;5.60;;
53875;SDS011;39789;53.216;5.624;2023-03-23T16:23:33;19.20;;;5.07;;
53875;SDS011;39789;53.216;5.624;2023-03-23T16:26:01;22.20;;;6.18;;